createdAt,value
2017-12-14T05:00:23.429Z,3.83
2017-12-14T05:00:48.908Z,3.84
2017-12-14T05:01:14.392Z,3.84
2017-12-14T05:01:39.875Z,3.87
2017-12-14T05:02:05.364Z,3.86
2017-12-14T05:02:30.845Z,3.88
2017-12-14T05:02:56.338Z,3.84
2017-12-14T05:03:21.822Z,3.84
2017-12-14T05:03:47.289Z,3.77
2017-12-14T05:04:12.791Z,3.76
2017-12-14T05:04:38.299Z,3.81
2017-12-14T05:05:03.780Z,3.77
2017-12-14T05:05:29.315Z,3.76
2017-12-14T05:05:54.804Z,3.74
2017-12-14T05:06:20.283Z,3.84
2017-12-14T05:06:45.796Z,3.81
2017-12-14T05:07:11.305Z,3.84
2017-12-14T05:07:36.763Z,3.78
2017-12-14T05:08:02.249Z,3.76
2017-12-14T05:08:27.760Z,3.78
2017-12-14T05:08:53.205Z,3.74
2017-12-14T05:09:18.667Z,3.7
2017-12-14T05:09:44.164Z,3.69
2017-12-14T05:10:09.582Z,3.69
2017-12-14T05:10:35.103Z,3.7
2017-12-14T05:11:00.551Z,3.69
2017-12-14T05:11:26.037Z,3.63
2017-12-14T05:11:51.525Z,3.65
2017-12-14T05:12:16.992Z,3.7
2017-12-14T05:12:42.421Z,3.58
2017-12-14T05:13:07.901Z,3.62
2017-12-14T05:13:33.419Z,3.65
2017-12-14T05:13:58.892Z,3.63
2017-12-14T05:14:24.345Z,3.66
2017-12-14T05:14:49.877Z,3.63
2017-12-14T05:15:15.323Z,3.6
2017-12-14T05:15:40.769Z,3.66
2017-12-14T05:16:06.277Z,3.51
2017-12-14T05:16:31.707Z,3.55
2017-12-14T05:16:57.196Z,3.6
2017-12-14T05:17:22.678Z,3.55
2017-12-14T05:17:48.178Z,3.58
2017-12-14T05:18:13.612Z,3.55
2017-12-14T05:18:39.132Z,3.5
2017-12-14T05:19:04.642Z,3.65
2017-12-14T05:19:30.155Z,3.53
2017-12-14T05:19:55.642Z,3.5
2017-12-14T05:20:21.130Z,3.53
2017-12-14T05:20:46.604Z,3.58
2017-12-14T05:21:12.095Z,3.51
2017-12-14T05:21:37.565Z,3.5
2017-12-14T05:22:03.039Z,3.55
2017-12-14T05:22:28.505Z,3.45
2017-12-14T05:23:37.229Z,3.44
2017-12-14T05:24:02.717Z,3.41
2017-12-14T05:24:28.201Z,3.44
2017-12-14T05:24:53.714Z,3.47
2017-12-14T05:25:19.159Z,3.4
2017-12-14T05:25:44.634Z,3.47
2017-12-14T05:26:52.844Z,3.44
2017-12-14T05:27:18.341Z,3.42
2017-12-14T05:27:43.825Z,3.42
2017-12-14T05:28:09.317Z,3.44
2017-12-14T05:28:34.846Z,3.47
2017-12-14T05:29:00.317Z,3.34
2017-12-14T05:29:25.800Z,3.4
2017-12-14T05:29:51.253Z,3.32
2017-12-14T05:30:16.808Z,3.42
2017-12-14T05:30:42.280Z,3.37
2017-12-14T05:31:07.763Z,3.42
2017-12-14T05:31:33.337Z,3.41
2017-12-14T05:31:58.756Z,3.26
2017-12-14T05:32:24.331Z,3.4
2017-12-14T05:32:49.832Z,3.29
2017-12-14T05:33:15.319Z,3.28
2017-12-14T05:33:40.746Z,3.28
2017-12-14T05:34:06.221Z,3.36
2017-12-14T05:34:31.625Z,3.41
2017-12-14T05:34:57.189Z,3.32
2017-12-14T05:35:22.661Z,3.34
2017-12-14T05:35:48.092Z,3.32
2017-12-14T05:36:13.607Z,3.32
2017-12-14T05:36:38.940Z,3.29
2017-12-14T05:37:04.444Z,3.31
2017-12-14T05:37:29.884Z,3.37
2017-12-14T05:37:55.385Z,3.37
2017-12-14T05:38:58.979Z,3.31
2017-12-14T05:39:24.471Z,3.29
2017-12-14T05:39:49.959Z,3.22
2017-12-14T05:40:15.455Z,3.23
2017-12-14T05:40:40.882Z,3.29
2017-12-14T05:41:34.353Z,3.23
2017-12-14T05:41:59.847Z,3.28
2017-12-14T05:42:25.292Z,3.25
2017-12-14T05:42:50.754Z,3.26
2017-12-14T05:43:16.264Z,3.22
2017-12-14T05:43:41.700Z,3.28
2017-12-14T05:44:07.184Z,3.25
2017-12-14T05:44:32.669Z,3.25
2017-12-14T05:44:58.160Z,3.16
2017-12-14T05:45:23.690Z,3.23
2017-12-14T05:45:49.172Z,3.26
2017-12-14T05:46:14.725Z,3.26
2017-12-14T05:46:40.177Z,3.16
2017-12-14T05:47:05.666Z,3.18
2017-12-14T05:47:31.152Z,3.22
2017-12-14T05:47:56.666Z,3.18
2017-12-14T05:48:22.206Z,3.13
2017-12-14T05:48:47.677Z,3.13
2017-12-14T05:49:13.177Z,3.11
2017-12-14T05:49:38.671Z,3.13
2017-12-14T05:50:04.155Z,3.22
2017-12-14T05:50:29.636Z,3.19
2017-12-14T05:50:55.110Z,3.13
2017-12-14T05:51:20.609Z,3.18
2017-12-14T05:51:46.072Z,3.14
2017-12-14T05:52:11.587Z,3.08
2017-12-14T05:53:10.292Z,3.13
2017-12-14T05:53:35.779Z,3.19
2017-12-14T05:54:01.284Z,3.18
2017-12-14T05:54:26.767Z,3.16
2017-12-14T05:54:52.240Z,3.07
2017-12-14T05:55:17.712Z,3.13
2017-12-14T05:55:43.180Z,3.14
2017-12-14T05:56:08.647Z,3.18
2017-12-14T05:56:34.138Z,3.14
2017-12-14T05:56:59.664Z,3.13
2017-12-14T05:57:25.140Z,3.11
2017-12-14T05:57:50.652Z,3.16
2017-12-14T05:58:16.137Z,3.11
2017-12-14T05:58:41.636Z,3.11
2017-12-14T05:59:07.124Z,3.04
2017-12-14T05:59:32.617Z,3.13
2017-12-14T05:59:58.179Z,3.05
2017-12-14T06:00:23.661Z,3.13
2017-12-14T06:00:49.154Z,3.13
2017-12-14T06:01:14.647Z,3.08
2017-12-14T06:01:40.141Z,3.14
2017-12-14T06:02:05.606Z,3.16
2017-12-14T06:02:31.076Z,3.19
2017-12-14T06:02:56.568Z,3.03
2017-12-14T06:03:22.065Z,3.1
2017-12-14T06:03:47.546Z,3.18
2017-12-14T06:04:13.061Z,3.11
2017-12-14T06:04:38.540Z,3.05
2017-12-14T06:05:04.048Z,3.14
2017-12-14T06:05:29.564Z,3.18
2017-12-14T06:05:55.020Z,3.18
2017-12-14T06:06:20.491Z,3.16
2017-12-14T06:06:45.953Z,3.18
2017-12-14T06:07:11.451Z,3.16
2017-12-14T06:07:36.948Z,3.14
2017-12-14T06:08:02.422Z,3.22
2017-12-14T06:08:27.921Z,3.19
2017-12-14T06:08:53.463Z,3.14
2017-12-14T06:09:18.883Z,3.11
2017-12-14T06:09:44.346Z,3.1
2017-12-14T06:10:09.887Z,3.18
2017-12-14T06:10:35.365Z,3.19
2017-12-14T06:11:00.855Z,3.05
2017-12-14T06:11:26.312Z,3.18
2017-12-14T06:12:25.820Z,3.18
2017-12-14T06:12:51.317Z,3.05
2017-12-14T06:13:16.816Z,3.14
2017-12-14T06:13:42.301Z,3.16
2017-12-14T06:14:07.795Z,3.1
2017-12-14T06:14:33.270Z,3.08
2017-12-14T06:14:58.731Z,3.08
2017-12-14T06:15:24.221Z,3.18
2017-12-14T06:15:49.724Z,3.1
2017-12-14T06:16:15.214Z,3.08
2017-12-14T06:16:40.693Z,3.1
2017-12-14T06:17:28.999Z,3.07
2017-12-14T06:17:54.501Z,3.01
2017-12-14T06:18:20.043Z,3.18
2017-12-14T06:18:45.552Z,3.05
2017-12-14T06:19:11.049Z,3.04
2017-12-14T06:19:36.540Z,3.13
2017-12-14T06:20:29.942Z,3.04
2017-12-14T06:20:55.474Z,3.08
2017-12-14T06:21:20.924Z,3.05
2017-12-14T06:21:46.412Z,3.01
2017-12-14T06:22:11.894Z,3.11
2017-12-14T06:22:37.379Z,3.05
2017-12-14T06:23:02.870Z,3.04
2017-12-14T06:23:28.337Z,3.05
2017-12-14T06:23:53.876Z,3.05
2017-12-14T06:24:19.371Z,3.07
2017-12-14T06:24:44.880Z,3.1
2017-12-14T06:25:10.377Z,3.05
2017-12-14T06:25:35.862Z,3.11
2017-12-14T06:26:01.357Z,2.98
2017-12-14T06:26:26.860Z,3.08
2017-12-14T06:26:52.343Z,3.01
2017-12-14T06:27:17.822Z,3.01
2017-12-14T06:27:43.360Z,3.04
2017-12-14T06:28:08.900Z,3.03
2017-12-14T06:28:34.362Z,3.01
2017-12-14T06:28:59.829Z,3.01
2017-12-14T06:29:58.333Z,2.97
2017-12-14T06:30:23.827Z,2.92
2017-12-14T06:30:49.309Z,2.92
2017-12-14T06:31:14.783Z,2.97
2017-12-14T06:31:40.267Z,2.95
2017-12-14T06:32:05.760Z,2.95
2017-12-14T06:32:31.239Z,2.97
2017-12-14T06:32:56.732Z,2.92
2017-12-14T06:33:22.225Z,2.89
2017-12-14T06:33:47.725Z,2.95
2017-12-14T06:34:13.229Z,2.92
2017-12-14T06:34:38.698Z,2.97
2017-12-14T06:35:04.186Z,2.9
2017-12-14T06:36:12.843Z,2.93
2017-12-14T06:36:38.352Z,2.9
2017-12-14T06:37:03.848Z,2.86
2017-12-14T06:37:29.336Z,2.9
2017-12-14T06:37:54.832Z,2.9
2017-12-14T06:38:20.328Z,2.9
2017-12-14T06:38:45.847Z,3
2017-12-14T06:39:11.355Z,2.85
2017-12-14T06:39:36.836Z,2.87
2017-12-14T06:40:02.316Z,2.89
2017-12-14T06:40:27.814Z,2.86
2017-12-14T06:40:53.297Z,2.87
2017-12-14T06:41:18.776Z,2.85
2017-12-14T06:41:44.261Z,2.83
2017-12-14T06:42:09.760Z,2.85
2017-12-14T06:42:35.253Z,2.85
2017-12-14T06:43:33.764Z,2.77
2017-12-14T06:43:59.257Z,2.83
2017-12-14T06:44:24.737Z,2.85
2017-12-14T06:44:50.242Z,2.82
2017-12-14T06:45:15.724Z,2.83
2017-12-14T06:45:41.188Z,2.8
2017-12-14T06:46:06.664Z,2.8
2017-12-14T06:46:32.161Z,2.83
2017-12-14T06:46:57.658Z,2.77
2017-12-14T06:47:23.147Z,2.82
2017-12-14T06:47:48.634Z,2.82
2017-12-14T06:48:14.124Z,2.77
2017-12-14T06:48:39.624Z,2.8
2017-12-14T06:49:05.119Z,2.83
2017-12-14T06:49:30.599Z,2.83
2017-12-14T06:49:56.124Z,2.77
2017-12-14T06:50:21.608Z,2.79
2017-12-14T06:50:47.124Z,2.85
2017-12-14T06:51:12.607Z,2.83
2017-12-14T06:51:38.093Z,2.82
2017-12-14T06:52:03.582Z,2.8
2017-12-14T06:52:29.076Z,2.83
2017-12-14T06:52:54.545Z,2.8
2017-12-14T06:53:20.008Z,2.83
2017-12-14T06:53:45.505Z,2.83
2017-12-14T06:54:10.987Z,2.83
2017-12-14T06:54:36.463Z,2.85
2017-12-14T06:55:01.940Z,2.86
2017-12-14T06:55:27.403Z,2.8
2017-12-14T06:55:52.897Z,2.82
2017-12-14T06:56:18.398Z,2.82
2017-12-14T06:56:43.869Z,2.87
2017-12-14T06:57:09.367Z,2.8
2017-12-14T06:57:34.882Z,2.82
2017-12-14T06:58:00.343Z,2.85
2017-12-14T06:58:25.833Z,2.86
2017-12-14T06:58:51.373Z,2.8
2017-12-14T06:59:16.847Z,2.8
2017-12-14T06:59:42.344Z,2.85
2017-12-14T07:00:07.841Z,2.83
2017-12-14T07:00:33.321Z,2.85
2017-12-14T07:00:58.848Z,2.87
2017-12-14T07:01:24.342Z,2.82
2017-12-14T07:01:49.807Z,2.77
2017-12-14T07:02:58.493Z,2.82
2017-12-14T07:03:23.989Z,2.85
2017-12-14T07:03:49.489Z,2.85
2017-12-14T07:04:15.016Z,2.85
2017-12-14T07:04:40.500Z,2.92
2017-12-14T07:05:05.983Z,2.87
2017-12-14T07:05:31.492Z,2.9
2017-12-14T07:05:56.983Z,2.85
2017-12-14T07:06:22.508Z,2.87
2017-12-14T07:06:47.987Z,2.87
2017-12-14T07:07:13.462Z,2.9
2017-12-14T07:07:38.966Z,2.93
2017-12-14T07:08:04.470Z,2.93
2017-12-14T07:08:29.961Z,2.89
2017-12-14T07:08:55.429Z,2.9
2017-12-14T07:09:20.914Z,2.89
2017-12-14T07:09:46.412Z,2.87
2017-12-14T07:10:11.922Z,2.93
2017-12-14T07:10:37.418Z,2.89
2017-12-14T07:11:02.887Z,3
2017-12-14T07:11:28.384Z,2.92
2017-12-14T07:11:53.858Z,2.87
2017-12-14T07:12:19.377Z,2.89
2017-12-14T07:12:44.860Z,3
2017-12-14T07:13:10.351Z,2.9
2017-12-14T07:13:35.845Z,2.86
2017-12-14T07:14:01.336Z,2.9
2017-12-14T07:14:26.842Z,2.92
2017-12-14T07:14:52.309Z,2.9
2017-12-14T07:15:45.777Z,2.89
2017-12-14T07:16:11.256Z,2.89
2017-12-14T07:16:36.741Z,2.89
2017-12-14T07:17:02.221Z,2.9
2017-12-14T07:17:27.728Z,2.89
2017-12-14T07:17:53.215Z,2.95
2017-12-14T07:18:18.710Z,2.93
2017-12-14T07:18:44.235Z,2.92
2017-12-14T07:19:09.689Z,2.92
2017-12-14T07:19:35.180Z,2.92
2017-12-14T07:20:00.628Z,2.89
2017-12-14T07:20:26.137Z,2.89
2017-12-14T07:20:51.576Z,2.92
2017-12-14T07:21:17.057Z,2.9
2017-12-14T07:21:42.548Z,2.93
2017-12-14T07:22:08.044Z,2.86
2017-12-14T07:22:33.559Z,2.93
2017-12-14T07:22:59.038Z,2.93
2017-12-14T07:23:24.512Z,2.93
2017-12-14T07:23:50.017Z,2.93
2017-12-14T07:24:15.515Z,2.93
2017-12-14T07:24:41.011Z,2.95
2017-12-14T07:25:06.516Z,2.9
2017-12-14T07:25:59.931Z,2.92
2017-12-14T07:26:25.446Z,2.95
2017-12-14T07:26:50.958Z,2.89
2017-12-14T07:27:16.449Z,2.92
2017-12-14T07:27:41.944Z,2.9
2017-12-14T07:28:07.426Z,2.9
2017-12-14T07:28:32.932Z,2.93
2017-12-14T07:28:58.420Z,2.89
2017-12-14T07:29:23.912Z,2.93
2017-12-14T07:29:49.412Z,2.97
2017-12-14T07:30:14.896Z,2.92
2017-12-14T07:30:40.394Z,2.92
2017-12-14T07:31:05.877Z,2.98
2017-12-14T07:31:31.404Z,2.95
2017-12-14T07:31:56.904Z,2.89
2017-12-14T07:32:22.383Z,2.9
2017-12-14T07:32:47.883Z,2.98
2017-12-14T07:33:13.381Z,2.89
2017-12-14T07:33:38.888Z,2.89
2017-12-14T07:34:04.374Z,2.9
2017-12-14T07:34:29.851Z,3
2017-12-14T07:34:55.368Z,2.92
2017-12-14T07:35:20.862Z,2.95
2017-12-14T07:35:46.359Z,3.01
2017-12-14T07:36:11.854Z,3.03
2017-12-14T07:36:37.362Z,3
2017-12-14T07:37:02.868Z,3.03
2017-12-14T07:37:28.362Z,3.03
2017-12-14T07:37:53.861Z,3.01
2017-12-14T07:38:19.326Z,3
2017-12-14T07:38:44.814Z,2.97
2017-12-14T07:39:10.293Z,3.05
2017-12-14T07:39:35.788Z,2.89
2017-12-14T07:40:01.299Z,2.93
2017-12-14T07:40:26.788Z,3
2017-12-14T07:40:52.280Z,2.93
2017-12-14T07:41:17.779Z,2.9
2017-12-14T07:41:43.236Z,3.01
2017-12-14T07:42:08.702Z,2.92
2017-12-14T07:42:34.197Z,2.87
2017-12-14T07:42:59.699Z,3
2017-12-14T07:43:25.163Z,2.95
2017-12-14T07:43:50.716Z,3
2017-12-14T07:44:16.371Z,3.04
2017-12-14T07:44:41.863Z,3
2017-12-14T07:45:07.381Z,3.05
2017-12-14T07:45:32.886Z,3.05
2017-12-14T07:45:58.368Z,3.03
2017-12-14T07:46:23.853Z,3.08
2017-12-14T07:46:49.374Z,3.1
2017-12-14T07:47:14.912Z,3.11
2017-12-14T07:47:40.429Z,3.08
2017-12-14T07:48:05.881Z,3.05
2017-12-14T07:48:31.491Z,3.1
2017-12-14T07:48:57.003Z,3.04
2017-12-14T07:49:22.482Z,2.98
2017-12-14T07:49:47.974Z,3.11
2017-12-14T07:50:56.677Z,3.1
2017-12-14T07:51:22.184Z,3.08
2017-12-14T07:51:47.678Z,3.19
2017-12-14T07:52:13.163Z,3.16
2017-12-14T07:52:38.652Z,3.13
2017-12-14T07:53:04.174Z,3.16
2017-12-14T07:53:57.613Z,3.13
2017-12-14T07:54:23.120Z,3.19
2017-12-14T07:54:48.610Z,3.18
2017-12-14T07:55:14.119Z,3.16
2017-12-14T07:55:39.617Z,3.19
2017-12-14T07:56:05.130Z,3.19
2017-12-14T07:56:30.613Z,3.25
2017-12-14T07:56:56.098Z,3.28
2017-12-14T07:57:21.577Z,3.29
2017-12-14T07:57:47.068Z,3.26
2017-12-14T07:58:12.571Z,3.23
2017-12-14T07:58:38.068Z,3.22
2017-12-14T07:59:03.554Z,3.25
2017-12-14T07:59:29.047Z,3.32
2017-12-14T07:59:54.559Z,3.32
2017-12-14T08:00:20.031Z,3.22
2017-12-14T08:00:45.515Z,3.31
2017-12-14T08:01:11.014Z,3.25
2017-12-14T08:01:36.474Z,3.29
2017-12-14T08:02:01.959Z,3.32
2017-12-14T08:02:27.427Z,3.29
2017-12-14T08:02:52.960Z,3.36
2017-12-14T08:03:18.439Z,3.34
2017-12-14T08:04:11.882Z,3.36
2017-12-14T08:04:37.382Z,3.28
2017-12-14T08:05:02.886Z,3.26
2017-12-14T08:05:28.374Z,3.42
2017-12-14T08:05:53.846Z,3.42
2017-12-14T08:06:19.321Z,3.32
2017-12-14T08:06:44.783Z,3.4
2017-12-14T08:07:10.276Z,3.4
2017-12-14T08:07:35.752Z,3.41
2017-12-14T08:08:01.214Z,3.4
2017-12-14T08:08:26.730Z,3.37
2017-12-14T08:08:52.218Z,3.26
2017-12-14T08:09:17.707Z,3.32
2017-12-14T08:09:43.190Z,3.4
2017-12-14T08:10:08.668Z,3.36
2017-12-14T08:10:34.189Z,3.23
2017-12-14T08:10:59.686Z,3.37
2017-12-14T08:11:25.204Z,3.4
2017-12-14T08:11:50.704Z,3.44
2017-12-14T08:12:16.212Z,3.42
2017-12-14T08:12:41.690Z,3.41
2017-12-14T08:13:07.200Z,3.44
2017-12-14T08:13:32.675Z,3.45
2017-12-14T08:13:58.159Z,3.41
2017-12-14T08:14:23.648Z,3.42
2017-12-14T08:14:49.167Z,3.55
2017-12-14T08:15:47.683Z,3.47
2017-12-14T08:16:13.191Z,3.45
2017-12-14T08:16:38.671Z,3.58
2017-12-14T08:17:04.160Z,3.48
2017-12-14T08:17:29.649Z,3.51
2017-12-14T08:17:55.151Z,3.55
2017-12-14T08:18:20.631Z,3.44
2017-12-14T08:18:46.120Z,3.47
2017-12-14T08:19:11.632Z,3.56
2017-12-14T08:19:37.151Z,3.45
2017-12-14T08:20:02.639Z,3.53
2017-12-14T08:20:28.094Z,3.5
2017-12-14T08:20:53.580Z,3.6
2017-12-14T08:21:19.074Z,3.56
2017-12-14T08:21:44.546Z,3.42
2017-12-14T08:22:10.066Z,3.6
2017-12-14T08:22:35.574Z,3.45
2017-12-14T08:23:01.081Z,3.5
2017-12-14T08:23:26.525Z,3.56
2017-12-14T08:23:52.042Z,3.55
2017-12-14T08:24:17.505Z,3.56
2017-12-14T08:24:42.990Z,3.55
2017-12-14T08:25:08.442Z,3.51
2017-12-14T08:25:33.947Z,3.59
2017-12-14T08:25:59.455Z,3.55
2017-12-14T08:26:24.955Z,3.55
2017-12-14T08:26:50.408Z,3.55
2017-12-14T08:27:15.929Z,3.6
2017-12-14T08:27:41.414Z,3.63
2017-12-14T08:28:06.896Z,3.51
2017-12-14T08:28:32.394Z,3.63
2017-12-14T08:28:57.894Z,3.68
2017-12-14T08:29:23.401Z,3.55
2017-12-14T08:29:48.878Z,3.55
2017-12-14T08:30:14.383Z,3.56
2017-12-14T08:30:39.856Z,3.53
2017-12-14T08:31:05.358Z,3.53
2017-12-14T08:31:30.869Z,3.58
2017-12-14T08:31:56.361Z,3.66
2017-12-14T08:32:21.846Z,3.63
2017-12-14T08:32:47.364Z,3.55
2017-12-14T08:33:12.846Z,3.63
2017-12-14T08:33:38.348Z,3.73
2017-12-14T08:34:03.838Z,3.68
2017-12-14T08:34:29.334Z,3.62
2017-12-14T08:34:54.825Z,3.63
2017-12-14T08:35:20.261Z,3.63
2017-12-14T08:35:45.785Z,3.65
2017-12-14T08:36:11.260Z,3.63
2017-12-14T08:36:36.751Z,3.78
2017-12-14T08:37:02.277Z,3.63
2017-12-14T08:37:27.776Z,3.68
2017-12-14T08:37:53.262Z,3.74
2017-12-14T08:38:18.788Z,3.68
2017-12-14T08:38:44.281Z,3.77
2017-12-14T08:39:09.774Z,3.76
2017-12-14T08:39:35.258Z,3.78
2017-12-14T08:40:00.753Z,3.78
2017-12-14T08:40:26.231Z,3.8
2017-12-14T08:40:51.743Z,3.76
2017-12-14T08:41:17.270Z,3.78
2017-12-14T08:41:42.759Z,3.83
2017-12-14T08:42:08.250Z,3.83
2017-12-14T08:42:33.737Z,3.76
2017-12-14T08:42:59.245Z,3.88
2017-12-14T08:43:24.743Z,3.8
2017-12-14T08:43:50.245Z,3.84
2017-12-14T08:44:15.751Z,3.88
2017-12-14T08:44:41.245Z,3.87
2017-12-14T08:45:06.744Z,3.84
2017-12-14T08:45:32.236Z,3.84
2017-12-14T08:45:57.727Z,3.88
2017-12-14T08:46:23.247Z,3.87
2017-12-14T08:46:48.735Z,3.86
2017-12-14T08:47:14.223Z,3.88
2017-12-14T08:47:39.733Z,3.95
2017-12-14T08:48:05.211Z,3.87
2017-12-14T08:48:30.674Z,3.87
2017-12-14T08:48:56.201Z,3.91
2017-12-14T08:49:21.697Z,3.95
2017-12-14T08:49:47.166Z,3.91
2017-12-14T08:50:12.635Z,3.91
2017-12-14T08:50:38.116Z,3.95
2017-12-14T08:51:03.617Z,3.98
2017-12-14T08:51:29.100Z,3.96
2017-12-14T08:51:54.599Z,3.91
2017-12-14T08:52:20.091Z,3.92
2017-12-14T08:52:45.592Z,3.96
2017-12-14T08:53:11.089Z,3.96
2017-12-14T08:53:36.557Z,3.92
2017-12-14T08:54:02.043Z,3.98
2017-12-14T08:54:27.560Z,3.99
2017-12-14T08:54:53.118Z,4.01
2017-12-14T08:55:18.611Z,4.08
2017-12-14T08:55:44.118Z,4.08
2017-12-14T08:56:09.624Z,4.04
2017-12-14T08:56:35.137Z,4.08
2017-12-14T08:57:00.650Z,3.99
2017-12-14T08:57:26.181Z,4.06
2017-12-14T08:57:51.706Z,3.98
2017-12-14T08:58:17.169Z,4.01
2017-12-14T08:58:42.679Z,4.1
2017-12-14T08:59:08.173Z,4.12
2017-12-14T08:59:33.666Z,4.1
2017-12-14T08:59:59.179Z,4.13
2017-12-14T09:00:24.687Z,4.08
2017-12-14T09:00:50.191Z,4.06
2017-12-14T09:01:15.686Z,4.2
2017-12-14T09:01:41.193Z,4.13
2017-12-14T09:02:06.664Z,4.16
2017-12-14T09:02:32.143Z,4.2
2017-12-14T09:02:57.644Z,4.14
2017-12-14T09:03:23.144Z,4.19
2017-12-14T09:03:48.642Z,4.16
2017-12-14T09:04:14.134Z,4.14
2017-12-14T09:04:39.615Z,4.17
2017-12-14T09:05:05.080Z,4.14
2017-12-14T09:05:30.564Z,4.14
2017-12-14T09:05:56.050Z,4.2
2017-12-14T09:06:21.550Z,4.24
2017-12-14T09:06:47.034Z,4.13
2017-12-14T09:07:12.531Z,4.2
2017-12-14T09:07:38.023Z,4.24
2017-12-14T09:08:03.509Z,4.16
2017-12-14T09:08:29.002Z,4.16
2017-12-14T09:08:54.479Z,4.2
2017-12-14T09:09:19.988Z,4.17
2017-12-14T09:09:45.485Z,4.26
2017-12-14T09:10:10.988Z,4.24
2017-12-14T09:10:36.485Z,4.28
2017-12-14T09:11:02.025Z,4.32
2017-12-14T09:11:27.501Z,4.35
2017-12-14T09:11:52.980Z,4.3
2017-12-14T09:12:18.488Z,4.34
2017-12-14T09:12:44.005Z,4.34
2017-12-14T09:13:09.505Z,4.32
2017-12-14T09:13:34.946Z,4.38
2017-12-14T09:14:00.450Z,4.38
2017-12-14T09:14:25.962Z,4.4
2017-12-14T09:14:51.423Z,4.35
2017-12-14T09:15:16.924Z,4.5
2017-12-14T09:15:42.376Z,4.5
2017-12-14T09:16:07.866Z,4.44
2017-12-14T09:16:33.343Z,4.44
2017-12-14T09:16:58.818Z,4.45
2017-12-14T09:17:24.312Z,4.52
2017-12-14T09:17:49.817Z,4.59
2017-12-14T09:18:15.278Z,4.59
2017-12-14T09:18:40.802Z,4.58
2017-12-14T09:19:06.260Z,4.56
2017-12-14T09:19:31.748Z,4.6
2017-12-14T09:19:57.238Z,4.53
2017-12-14T09:20:22.743Z,4.58
2017-12-14T09:20:48.249Z,4.56
2017-12-14T09:21:13.732Z,4.6
2017-12-14T09:21:39.308Z,4.56
2017-12-14T09:22:04.834Z,4.62
2017-12-14T09:22:30.318Z,4.59
2017-12-14T09:22:55.807Z,4.6
2017-12-14T09:23:21.314Z,4.59
2017-12-14T09:23:46.776Z,4.59
2017-12-14T09:24:12.310Z,4.53
2017-12-14T09:24:37.842Z,4.56
2017-12-14T09:25:36.368Z,4.63
2017-12-14T09:26:01.869Z,4.52
2017-12-14T09:26:27.375Z,4.63
2017-12-14T09:26:52.884Z,4.55
2017-12-14T09:27:18.382Z,4.63
2017-12-14T09:27:43.876Z,4.68
2017-12-14T09:28:09.387Z,4.58
2017-12-14T09:28:34.880Z,4.66
2017-12-14T09:29:00.357Z,4.63
2017-12-14T09:29:25.844Z,4.67
2017-12-14T09:29:51.291Z,4.67
2017-12-14T09:31:00.016Z,4.62
2017-12-14T09:31:25.523Z,4.66
2017-12-14T09:31:51.020Z,4.6
2017-12-14T09:32:16.485Z,4.62
2017-12-14T09:32:41.955Z,4.63
2017-12-14T09:33:07.470Z,4.59
2017-12-14T09:33:32.988Z,4.71
2017-12-14T09:33:58.464Z,4.63
2017-12-14T09:34:23.928Z,4.62
2017-12-14T09:34:49.387Z,4.55
2017-12-14T09:35:14.875Z,4.7
2017-12-14T09:35:40.381Z,4.7
2017-12-14T09:36:05.861Z,4.59
2017-12-14T09:36:31.342Z,4.71
2017-12-14T09:36:56.904Z,4.66
2017-12-14T09:37:22.468Z,4.6
2017-12-14T09:37:47.954Z,4.59
2017-12-14T09:38:13.416Z,4.66
2017-12-14T09:38:38.913Z,4.67
2017-12-14T09:39:04.385Z,4.59
2017-12-14T09:39:29.896Z,4.66
2017-12-14T09:39:55.368Z,4.62
2017-12-14T09:40:20.854Z,4.62
2017-12-14T09:40:46.316Z,4.55
2017-12-14T09:41:11.798Z,4.67
2017-12-14T09:41:37.298Z,4.63
2017-12-14T09:42:02.794Z,4.66
2017-12-14T09:42:28.282Z,4.59
2017-12-14T09:43:21.747Z,4.6
2017-12-14T09:43:47.245Z,4.56
2017-12-14T09:44:12.741Z,4.59
2017-12-14T09:44:38.243Z,4.55
2017-12-14T09:45:03.698Z,4.58
2017-12-14T09:45:29.158Z,4.55
2017-12-14T09:45:54.649Z,4.58
2017-12-14T09:46:20.105Z,4.55
2017-12-14T09:46:45.616Z,4.59
2017-12-14T09:47:11.117Z,4.59
2017-12-14T09:47:36.621Z,4.58
2017-12-14T09:48:02.090Z,4.52
2017-12-14T09:49:10.817Z,4.45
2017-12-14T09:49:36.292Z,4.48
2017-12-14T09:50:01.793Z,4.48
2017-12-14T09:50:27.283Z,4.48
2017-12-14T09:50:52.756Z,4.44
2017-12-14T09:51:18.241Z,4.45
2017-12-14T09:51:43.725Z,4.53
2017-12-14T09:52:09.210Z,4.44
2017-12-14T09:52:34.684Z,4.41
2017-12-14T09:53:00.212Z,4.41
2017-12-14T09:53:25.785Z,4.38
2017-12-14T09:53:51.266Z,4.4
2017-12-14T09:54:16.766Z,4.32
2017-12-14T09:54:42.276Z,4.38
2017-12-14T09:55:07.733Z,4.37
2017-12-14T09:55:33.223Z,4.4
2017-12-14T09:55:58.710Z,4.4
2017-12-14T09:56:24.231Z,4.4
2017-12-14T09:56:49.698Z,4.42
2017-12-14T09:57:15.237Z,4.38
2017-12-14T09:57:40.732Z,4.4
2017-12-14T09:58:06.206Z,4.4
2017-12-14T09:58:31.684Z,4.34
2017-12-14T09:58:57.192Z,4.34
2017-12-14T09:59:22.688Z,4.31
2017-12-14T09:59:48.202Z,4.34
2017-12-14T10:00:13.668Z,4.42
2017-12-14T10:00:39.136Z,4.38
2017-12-14T10:01:04.622Z,4.4
2017-12-14T10:01:30.120Z,4.35
2017-12-14T10:01:55.623Z,4.35
2017-12-14T10:02:21.107Z,4.32
2017-12-14T10:02:46.603Z,4.3
2017-12-14T10:03:12.100Z,4.32
2017-12-14T10:03:37.613Z,4.37
2017-12-14T10:04:03.113Z,4.4
2017-12-14T10:04:29.175Z,4.42
2017-12-14T10:04:54.668Z,4.4
2017-12-14T10:05:20.131Z,4.35
2017-12-14T10:05:45.623Z,4.37
2017-12-14T10:06:11.102Z,4.41
2017-12-14T10:06:36.605Z,4.32
2017-12-14T10:07:24.410Z,4.4
2017-12-14T10:07:49.901Z,4.35
2017-12-14T10:08:15.389Z,4.38
2017-12-14T10:08:40.882Z,4.37
2017-12-14T10:09:06.363Z,4.41
2017-12-14T10:09:31.844Z,4.35
2017-12-14T10:09:57.339Z,4.35
2017-12-14T10:10:22.854Z,4.42
2017-12-14T10:10:48.333Z,4.26
2017-12-14T10:11:13.835Z,4.32
2017-12-14T10:11:39.347Z,4.32
2017-12-14T10:12:04.834Z,4.35
2017-12-14T10:12:30.315Z,4.32
2017-12-14T10:13:28.836Z,4.34
2017-12-14T10:13:54.330Z,4.3
2017-12-14T10:14:19.827Z,4.3
2017-12-14T10:14:45.328Z,4.34
2017-12-14T10:15:10.830Z,4.3
2017-12-14T10:15:36.307Z,4.31
2017-12-14T10:16:01.796Z,4.35
2017-12-14T10:16:27.295Z,4.38
2017-12-14T10:17:36.020Z,4.31
2017-12-14T10:18:01.498Z,4.35
2017-12-14T10:18:26.977Z,4.32
2017-12-14T10:18:52.520Z,4.31
2017-12-14T10:19:18.016Z,4.32
2017-12-14T10:19:43.527Z,4.31
2017-12-14T10:20:09.025Z,4.28
2017-12-14T10:20:34.575Z,4.32
2017-12-14T10:21:00.070Z,4.35
2017-12-14T10:21:25.535Z,4.35
2017-12-14T10:21:51.016Z,4.3
2017-12-14T10:22:16.524Z,4.28
2017-12-14T10:22:42.041Z,4.35
2017-12-14T10:23:07.544Z,4.22
2017-12-14T10:23:33.072Z,4.28
2017-12-14T10:23:58.567Z,4.31
2017-12-14T10:24:24.012Z,4.26
2017-12-14T10:24:49.516Z,4.3
2017-12-14T10:25:15.005Z,4.22
2017-12-14T10:25:40.480Z,4.17
2017-12-14T10:26:05.964Z,4.2
2017-12-14T10:26:31.460Z,4.13
2017-12-14T10:26:56.946Z,4.22
2017-12-14T10:27:22.461Z,4.16
2017-12-14T10:27:47.934Z,4.16
2017-12-14T10:28:13.444Z,4.22
2017-12-14T10:28:38.968Z,4.17
2017-12-14T10:29:04.474Z,4.17
2017-12-14T10:29:29.965Z,4.2
2017-12-14T10:29:55.459Z,4.19
2017-12-14T10:30:20.971Z,4.14
2017-12-14T10:30:46.456Z,4.19
2017-12-14T10:31:11.930Z,4.17
2017-12-14T10:31:37.394Z,4.26
2017-12-14T10:32:02.952Z,4.19
2017-12-14T10:32:28.435Z,4.1
2017-12-14T10:32:53.926Z,4.2
2017-12-14T10:33:19.386Z,4.14
2017-12-14T10:33:44.897Z,4.16
2017-12-14T10:34:10.418Z,4.17
2017-12-14T10:34:35.905Z,4.1
2017-12-14T10:35:01.436Z,4.13
2017-12-14T10:35:26.914Z,4.16
2017-12-14T10:35:52.450Z,4.17
2017-12-14T10:36:17.938Z,4.19
2017-12-14T10:36:43.440Z,4.14
2017-12-14T10:37:08.932Z,4.2
2017-12-14T10:37:34.444Z,4.13
2017-12-14T10:37:59.933Z,4.17
2017-12-14T10:38:25.395Z,4.12
2017-12-14T10:38:50.919Z,4.16
2017-12-14T10:39:16.392Z,4.16
2017-12-14T10:39:41.871Z,4.14
2017-12-14T10:40:07.404Z,4.1
2017-12-14T10:40:32.871Z,4.16
2017-12-14T10:40:58.350Z,4.13
2017-12-14T10:41:23.880Z,4.12
2017-12-14T10:41:49.430Z,3.99
2017-12-14T10:42:14.965Z,4.08
2017-12-14T10:42:40.426Z,4.12
2017-12-14T10:43:05.920Z,4.1
2017-12-14T10:43:31.472Z,4.06
2017-12-14T10:43:57.026Z,4.12
2017-12-14T10:44:22.479Z,3.98
2017-12-14T10:44:47.949Z,4.08
2017-12-14T10:45:13.479Z,4.02
2017-12-14T10:45:38.933Z,4.08
2017-12-14T10:46:04.445Z,4.05
2017-12-14T10:46:29.938Z,4.06
2017-12-14T10:46:55.402Z,4.17
2017-12-14T10:47:43.714Z,4.02
2017-12-14T10:48:09.212Z,4.01
2017-12-14T10:48:34.700Z,4.05
2017-12-14T10:49:00.190Z,4.01
2017-12-14T10:49:25.680Z,3.99
2017-12-14T10:49:51.155Z,4.06
2017-12-14T10:50:16.680Z,4.01
2017-12-14T10:51:10.091Z,4.08
2017-12-14T10:51:35.587Z,3.96
2017-12-14T10:52:01.084Z,3.95
2017-12-14T10:52:26.565Z,3.99
2017-12-14T10:52:52.037Z,3.92
2017-12-14T10:53:17.501Z,3.95
2017-12-14T10:53:42.992Z,3.98
2017-12-14T10:54:08.515Z,3.99
2017-12-14T10:54:34.012Z,3.98
2017-12-14T10:54:59.526Z,3.86
2017-12-14T10:55:25.007Z,3.95
2017-12-14T10:55:50.516Z,3.92
2017-12-14T10:56:15.969Z,3.92